Binghamton, NY

7:22 PM EST on December 03, 2016 (GMT -0500)
Binghamton Regional-Link | | Change Station

Elev 1634 ft 42.21 °N, 75.98 °W | Updated 29 minutes ago

Overcast
Overcast
32 °F
Feels Like 24 °F
N
9
Wind Variable Wind from NW

Today
High -- | Low -- °F
--% Chance of Precip.
Yesterday
High -- | Low -- °F
Precip. -- in
Pressure 30.17 in
Visibility 10.0 miles
Clouds Mostly Cloudy 2300 ft
Overcast 2800 ft
Windchill 24 °F
Dew Point 28 °F
Humidity 85%
Rainfall 0.07 in
Snow Depth Not available.
7:15 AM 4:32 PM
Waxing Crescent, 18% visible
METAR KBGM 032353Z 31008KT 10SM BKN023 OVC028 00/M02 A3012 RMK AO2 SLP216 60004 T00001022 10006 21006 51013
Pressure 30.17 in
Visibility 10.0 miles
Clouds Mostly Cloudy 2300 ft
Overcast 2800 ft
Windchill 24 °F
Dew Point 28 °F
Humidity 85%
Rainfall 0.07 in
Snow Depth Not available.
7:15 AM 4:32 PM
Waxing Crescent, 18% visible
METAR KBGM 032353Z 31008KT 10SM BKN023 OVC028 00/M02 A3012 RMK AO2 SLP216 60004 T00001022 10006 21006 51013

10-Day Weather Forecast

Almanac

Astronomy

Dec. 03, 2016 Rise Set
Actual Time
Civil Twilight
Nautical Twilight
Astronomical Twilight
Moon
Length of Visible Light
Length of Day
Tomorrow will be .
, % of the Moon is Illuminated

Today's Extremes

State Highs State Lows

Community

WunderPhotos

Upload Photos

1,955,538 photos uploaded!

WunderBlog® & News

Nearby

Air Quality

  Air Quality AQ Index Pollutant
Not available.

Snow Depth

Station Depth Elevation

Earthquake Activity

City Distance Mag. Time & Date
Minimum magnitude displayed is 2.5.

Coastal Water Temperatures

Place Temperature

Stations

Nearby Weather Stations

Station Location Temp. Windchill Dew Point Humidity Wind Precip. Elev Updated Type
                   

Watches & Warnings

There are currently no watches in effect.